sensor_id;sensor_type;location;lat;lon;timestamp;P1;durP1;ratioP1;P2;durP2;ratioP2
6463;SDS011;3265;42.694;23.282;2023-02-04T00:01:51;10.60;;;7.00;;
6463;SDS011;3265;42.694;23.282;2023-02-04T00:04:18;9.07;;;6.27;;
6463;SDS011;3265;42.694;23.282;2023-02-04T00:06:47;11.17;;;6.13;;
6463;SDS011;3265;42.694;23.282;2023-02-04T00:09:13;12.27;;;6.40;;
6463;SDS011;3265;42.694;23.282;2023-02-04T00:11:41;10.10;;;6.40;;
6463;SDS011;3265;42.694;23.282;2023-02-04T00:14:09;8.27;;;5.77;;
6463;SDS011;3265;42.694;23.282;2023-02-04T00:16:36;11.57;;;6.83;;
6463;SDS011;3265;42.694;23.282;2023-02-04T00:19:03;10.27;;;6.20;;
6463;SDS011;3265;42.694;23.282;2023-02-04T00:21:30;9.03;;;5.67;;
6463;SDS011;3265;42.694;23.282;2023-02-04T00:23:58;8.90;;;6.33;;
6463;SDS011;3265;42.694;23.282;2023-02-04T00:26:25;9.13;;;6.13;;
6463;SDS011;3265;42.694;23.282;2023-02-04T00:28:51;8.93;;;6.13;;
6463;SDS011;3265;42.694;23.282;2023-02-04T00:31:19;10.43;;;6.30;;
6463;SDS011;3265;42.694;23.282;2023-02-04T00:33:45;13.40;;;6.20;;
6463;SDS011;3265;42.694;23.282;2023-02-04T00:36:12;12.27;;;6.00;;
6463;SDS011;3265;42.694;23.282;2023-02-04T00:38:39;10.17;;;5.70;;
6463;SDS011;3265;42.694;23.282;2023-02-04T00:41:07;9.93;;;5.53;;
6463;SDS011;3265;42.694;23.282;2023-02-04T00:43:34;9.70;;;5.43;;
6463;SDS011;3265;42.694;23.282;2023-02-04T00:46:01;10.17;;;5.37;;
6463;SDS011;3265;42.694;23.282;2023-02-04T00:48:28;7.47;;;5.13;;
6463;SDS011;3265;42.694;23.282;2023-02-04T00:50:55;11.83;;;6.23;;
6463;SDS011;3265;42.694;23.282;2023-02-04T00:53:22;7.40;;;5.27;;
6463;SDS011;3265;42.694;23.282;2023-02-04T00:55:49;7.17;;;4.87;;
6463;SDS011;3265;42.694;23.282;2023-02-04T00:58:19;7.17;;;4.90;;
6463;SDS011;3265;42.694;23.282;2023-02-04T01:00:46;7.23;;;4.07;;
6463;SDS011;3265;42.694;23.282;2023-02-04T01:03:13;3.53;;;2.57;;
6463;SDS011;3265;42.694;23.282;2023-02-04T01:05:40;4.03;;;2.53;;
6463;SDS011;3265;42.694;23.282;2023-02-04T01:08:07;5.37;;;2.57;;
6463;SDS011;3265;42.694;23.282;2023-02-04T01:10:33;4.70;;;3.10;;
6463;SDS011;3265;42.694;23.282;2023-02-04T01:13:00;8.60;;;4.03;;
6463;SDS011;3265;42.694;23.282;2023-02-04T01:15:28;5.10;;;3.00;;
6463;SDS011;3265;42.694;23.282;2023-02-04T01:17:55;4.37;;;2.60;;
6463;SDS011;3265;42.694;23.282;2023-02-04T01:20:22;3.67;;;2.80;;
6463;SDS011;3265;42.694;23.282;2023-02-04T01:22:49;5.20;;;3.73;;
6463;SDS011;3265;42.694;23.282;2023-02-04T01:25:16;7.30;;;5.03;;
6463;SDS011;3265;42.694;23.282;2023-02-04T01:27:43;9.37;;;5.17;;
6463;SDS011;3265;42.694;23.282;2023-02-04T01:30:11;4.03;;;3.17;;
6463;SDS011;3265;42.694;23.282;2023-02-04T01:32:40;7.10;;;3.43;;
6463;SDS011;3265;42.694;23.282;2023-02-04T01:35:07;8.17;;;4.37;;
6463;SDS011;3265;42.694;23.282;2023-02-04T01:37:34;7.10;;;4.30;;
6463;SDS011;3265;42.694;23.282;2023-02-04T01:40:01;11.20;;;5.23;;
6463;SDS011;3265;42.694;23.282;2023-02-04T01:42:29;7.83;;;5.00;;
6463;SDS011;3265;42.694;23.282;2023-02-04T01:44:55;11.70;;;5.67;;
6463;SDS011;3265;42.694;23.282;2023-02-04T01:47:22;9.43;;;5.73;;
6463;SDS011;3265;42.694;23.282;2023-02-04T01:49:51;7.00;;;5.20;;
6463;SDS011;3265;42.694;23.282;2023-02-04T01:52:19;10.67;;;5.87;;
6463;SDS011;3265;42.694;23.282;2023-02-04T01:54:47;10.07;;;6.47;;
6463;SDS011;3265;42.694;23.282;2023-02-04T01:57:15;8.17;;;6.10;;
6463;SDS011;3265;42.694;23.282;2023-02-04T01:59:42;11.43;;;6.40;;
6463;SDS011;3265;42.694;23.282;2023-02-04T02:05:07;11.60;;;6.70;;
6463;SDS011;3265;42.694;23.282;2023-02-04T02:07:35;11.63;;;7.03;;
6463;SDS011;3265;42.694;23.282;2023-02-04T02:10:03;10.87;;;6.90;;
6463;SDS011;3265;42.694;23.282;2023-02-04T02:12:31;9.73;;;6.83;;
6463;SDS011;3265;42.694;23.282;2023-02-04T02:14:58;10.03;;;6.90;;
6463;SDS011;3265;42.694;23.282;2023-02-04T02:17:26;9.07;;;6.40;;
6463;SDS011;3265;42.694;23.282;2023-02-04T02:19:52;10.33;;;6.57;;
6463;SDS011;3265;42.694;23.282;2023-02-04T02:22:23;11.67;;;7.20;;
6463;SDS011;3265;42.694;23.282;2023-02-04T02:24:55;11.67;;;7.27;;
6463;SDS011;3265;42.694;23.282;2023-02-04T02:27:21;14.33;;;6.80;;
6463;SDS011;3265;42.694;23.282;2023-02-04T02:29:49;14.27;;;7.03;;
6463;SDS011;3265;42.694;23.282;2023-02-04T02:32:16;12.37;;;7.23;;
6463;SDS011;3265;42.694;23.282;2023-02-04T02:34:44;10.20;;;7.00;;
6463;SDS011;3265;42.694;23.282;2023-02-04T02:37:12;10.40;;;6.93;;
6463;SDS011;3265;42.694;23.282;2023-02-04T02:39:39;13.83;;;8.43;;
6463;SDS011;3265;42.694;23.282;2023-02-04T02:42:12;13.90;;;8.10;;
6463;SDS011;3265;42.694;23.282;2023-02-04T02:44:42;14.70;;;7.97;;
6463;SDS011;3265;42.694;23.282;2023-02-04T02:47:11;13.87;;;7.90;;
6463;SDS011;3265;42.694;23.282;2023-02-04T02:49:39;10.80;;;7.00;;
6463;SDS011;3265;42.694;23.282;2023-02-04T02:52:08;13.70;;;7.07;;
6463;SDS011;3265;42.694;23.282;2023-02-04T02:54:37;11.90;;;7.30;;
6463;SDS011;3265;42.694;23.282;2023-02-04T02:57:09;13.40;;;7.50;;
6463;SDS011;3265;42.694;23.282;2023-02-04T02:59:39;6.47;;;4.43;;
6463;SDS011;3265;42.694;23.282;2023-02-04T03:02:06;8.27;;;5.60;;
6463;SDS011;3265;42.694;23.282;2023-02-04T03:04:37;3.27;;;2.57;;
6463;SDS011;3265;42.694;23.282;2023-02-04T03:07:05;4.63;;;3.10;;
6463;SDS011;3265;42.694;23.282;2023-02-04T03:09:32;9.43;;;6.20;;
6463;SDS011;3265;42.694;23.282;2023-02-04T03:12:00;11.30;;;3.90;;
6463;SDS011;3265;42.694;23.282;2023-02-04T03:14:29;11.47;;;5.27;;
6463;SDS011;3265;42.694;23.282;2023-02-04T03:16:55;14.10;;;7.27;;
6463;SDS011;3265;42.694;23.282;2023-02-04T03:19:23;13.27;;;7.43;;
6463;SDS011;3265;42.694;23.282;2023-02-04T03:21:51;14.13;;;8.03;;
6463;SDS011;3265;42.694;23.282;2023-02-04T03:24:18;11.97;;;7.53;;
6463;SDS011;3265;42.694;23.282;2023-02-04T03:26:45;11.13;;;7.27;;
6463;SDS011;3265;42.694;23.282;2023-02-04T03:29:12;17.80;;;7.50;;
6463;SDS011;3265;42.694;23.282;2023-02-04T03:31:41;12.40;;;7.57;;
6463;SDS011;3265;42.694;23.282;2023-02-04T03:34:07;13.37;;;7.43;;
6463;SDS011;3265;42.694;23.282;2023-02-04T03:36:34;14.97;;;7.33;;
6463;SDS011;3265;42.694;23.282;2023-02-04T03:39:02;10.30;;;7.10;;
6463;SDS011;3265;42.694;23.282;2023-02-04T03:41:29;15.17;;;7.87;;
6463;SDS011;3265;42.694;23.282;2023-02-04T03:43:56;11.77;;;7.17;;
6463;SDS011;3265;42.694;23.282;2023-02-04T03:46:22;13.07;;;7.77;;
6463;SDS011;3265;42.694;23.282;2023-02-04T03:48:51;12.90;;;7.60;;
6463;SDS011;3265;42.694;23.282;2023-02-04T03:51:18;14.80;;;7.83;;
6463;SDS011;3265;42.694;23.282;2023-02-04T03:53:45;15.30;;;7.37;;
6463;SDS011;3265;42.694;23.282;2023-02-04T03:56:11;15.07;;;8.10;;
6463;SDS011;3265;42.694;23.282;2023-02-04T03:58:38;11.70;;;7.70;;
6463;SDS011;3265;42.694;23.282;2023-02-04T04:01:05;15.03;;;7.63;;
6463;SDS011;3265;42.694;23.282;2023-02-04T04:03:32;12.87;;;7.40;;
6463;SDS011;3265;42.694;23.282;2023-02-04T04:06:00;14.07;;;7.53;;
6463;SDS011;3265;42.694;23.282;2023-02-04T04:08:30;15.53;;;8.17;;
6463;SDS011;3265;42.694;23.282;2023-02-04T04:10:57;11.70;;;7.50;;
6463;SDS011;3265;42.694;23.282;2023-02-04T04:13:23;17.03;;;7.60;;
6463;SDS011;3265;42.694;23.282;2023-02-04T04:15:50;19.90;;;7.73;;
6463;SDS011;3265;42.694;23.282;2023-02-04T04:18:17;13.47;;;7.07;;
6463;SDS011;3265;42.694;23.282;2023-02-04T04:20:44;12.03;;;6.93;;
6463;SDS011;3265;42.694;23.282;2023-02-04T04:23:12;11.50;;;7.50;;
6463;SDS011;3265;42.694;23.282;2023-02-04T04:25:39;20.57;;;7.33;;
6463;SDS011;3265;42.694;23.282;2023-02-04T04:28:06;14.43;;;7.17;;
6463;SDS011;3265;42.694;23.282;2023-02-04T04:30:32;10.37;;;7.07;;
6463;SDS011;3265;42.694;23.282;2023-02-04T04:32:59;7.43;;;5.03;;
6463;SDS011;3265;42.694;23.282;2023-02-04T04:35:26;7.60;;;4.43;;
6463;SDS011;3265;42.694;23.282;2023-02-04T04:37:53;4.03;;;2.93;;
6463;SDS011;3265;42.694;23.282;2023-02-04T04:40:21;3.57;;;2.60;;
6463;SDS011;3265;42.694;23.282;2023-02-04T04:42:48;5.23;;;3.20;;
6463;SDS011;3265;42.694;23.282;2023-02-04T04:45:14;3.93;;;2.57;;
6463;SDS011;3265;42.694;23.282;2023-02-04T04:47:41;3.87;;;2.67;;
6463;SDS011;3265;42.694;23.282;2023-02-04T04:50:08;5.00;;;3.30;;
6463;SDS011;3265;42.694;23.282;2023-02-04T04:52:36;5.23;;;2.90;;
6463;SDS011;3265;42.694;23.282;2023-02-04T04:55:05;3.30;;;2.73;;
6463;SDS011;3265;42.694;23.282;2023-02-04T04:57:54;3.83;;;3.10;;
6463;SDS011;3265;42.694;23.282;2023-02-04T05:00:27;5.73;;;2.93;;
6463;SDS011;3265;42.694;23.282;2023-02-04T05:02:53;6.10;;;2.83;;
6463;SDS011;3265;42.694;23.282;2023-02-04T05:05:20;5.50;;;3.30;;
6463;SDS011;3265;42.694;23.282;2023-02-04T05:07:47;4.03;;;2.50;;
6463;SDS011;3265;42.694;23.282;2023-02-04T05:10:14;5.27;;;2.90;;
6463;SDS011;3265;42.694;23.282;2023-02-04T05:12:41;3.43;;;2.57;;
6463;SDS011;3265;42.694;23.282;2023-02-04T05:15:10;8.63;;;2.63;;
6463;SDS011;3265;42.694;23.282;2023-02-04T05:17:37;7.30;;;3.20;;
6463;SDS011;3265;42.694;23.282;2023-02-04T05:20:04;6.83;;;3.67;;
6463;SDS011;3265;42.694;23.282;2023-02-04T05:22:31;5.93;;;3.57;;
6463;SDS011;3265;42.694;23.282;2023-02-04T05:24:58;4.13;;;2.80;;
6463;SDS011;3265;42.694;23.282;2023-02-04T05:27:25;4.27;;;2.60;;
6463;SDS011;3265;42.694;23.282;2023-02-04T05:29:51;2.47;;;2.27;;
6463;SDS011;3265;42.694;23.282;2023-02-04T05:32:20;4.33;;;2.50;;
6463;SDS011;3265;42.694;23.282;2023-02-04T05:34:46;6.27;;;3.07;;
6463;SDS011;3265;42.694;23.282;2023-02-04T05:37:13;4.83;;;3.10;;
6463;SDS011;3265;42.694;23.282;2023-02-04T05:39:41;4.50;;;2.90;;
6463;SDS011;3265;42.694;23.282;2023-02-04T05:42:08;4.73;;;3.20;;
6463;SDS011;3265;42.694;23.282;2023-02-04T05:44:35;12.23;;;4.70;;
6463;SDS011;3265;42.694;23.282;2023-02-04T05:47:02;3.60;;;2.67;;
6463;SDS011;3265;42.694;23.282;2023-02-04T05:49:30;7.20;;;4.57;;
6463;SDS011;3265;42.694;23.282;2023-02-04T05:51:59;7.13;;;4.70;;
6463;SDS011;3265;42.694;23.282;2023-02-04T05:54:29;9.67;;;4.67;;
6463;SDS011;3265;42.694;23.282;2023-02-04T05:56:56;9.27;;;4.93;;
6463;SDS011;3265;42.694;23.282;2023-02-04T05:59:23;11.00;;;5.37;;
6463;SDS011;3265;42.694;23.282;2023-02-04T06:01:50;7.73;;;4.07;;
6463;SDS011;3265;42.694;23.282;2023-02-04T06:04:16;10.77;;;4.40;;
6463;SDS011;3265;42.694;23.282;2023-02-04T06:06:45;10.43;;;4.57;;
6463;SDS011;3265;42.694;23.282;2023-02-04T06:09:12;8.40;;;4.80;;
6463;SDS011;3265;42.694;23.282;2023-02-04T06:11:38;6.67;;;4.13;;
6463;SDS011;3265;42.694;23.282;2023-02-04T06:14:05;7.03;;;3.80;;
6463;SDS011;3265;42.694;23.282;2023-02-04T06:16:32;5.43;;;3.90;;
6463;SDS011;3265;42.694;23.282;2023-02-04T06:18:59;12.00;;;4.00;;
6463;SDS011;3265;42.694;23.282;2023-02-04T06:21:25;8.80;;;3.80;;
6463;SDS011;3265;42.694;23.282;2023-02-04T06:23:54;6.67;;;4.23;;
6463;SDS011;3265;42.694;23.282;2023-02-04T06:26:20;10.33;;;5.13;;
6463;SDS011;3265;42.694;23.282;2023-02-04T06:28:47;10.63;;;6.10;;
6463;SDS011;3265;42.694;23.282;2023-02-04T06:31:14;12.83;;;5.70;;
6463;SDS011;3265;42.694;23.282;2023-02-04T06:33:41;9.23;;;5.40;;
6463;SDS011;3265;42.694;23.282;2023-02-04T06:36:08;7.73;;;4.40;;
6463;SDS011;3265;42.694;23.282;2023-02-04T06:38:34;8.70;;;4.83;;
6463;SDS011;3265;42.694;23.282;2023-02-04T06:41:02;9.53;;;4.53;;
6463;SDS011;3265;42.694;23.282;2023-02-04T06:43:29;8.70;;;5.07;;
6463;SDS011;3265;42.694;23.282;2023-02-04T06:45:56;14.70;;;6.30;;
6463;SDS011;3265;42.694;23.282;2023-02-04T06:48:23;8.60;;;4.70;;
6463;SDS011;3265;42.694;23.282;2023-02-04T06:50:50;6.20;;;4.03;;
6463;SDS011;3265;42.694;23.282;2023-02-04T06:53:16;7.57;;;4.40;;
6463;SDS011;3265;42.694;23.282;2023-02-04T06:55:43;5.10;;;3.80;;
6463;SDS011;3265;42.694;23.282;2023-02-04T06:58:11;6.60;;;3.53;;
6463;SDS011;3265;42.694;23.282;2023-02-04T07:00:38;6.77;;;4.50;;
6463;SDS011;3265;42.694;23.282;2023-02-04T07:03:05;8.40;;;5.30;;
6463;SDS011;3265;42.694;23.282;2023-02-04T07:05:32;5.93;;;3.80;;
6463;SDS011;3265;42.694;23.282;2023-02-04T07:07:59;12.23;;;7.07;;
6463;SDS011;3265;42.694;23.282;2023-02-04T07:10:26;12.93;;;5.87;;
6463;SDS011;3265;42.694;23.282;2023-02-04T07:12:53;12.47;;;6.03;;
6463;SDS011;3265;42.694;23.282;2023-02-04T07:15:21;12.50;;;6.83;;
6463;SDS011;3265;42.694;23.282;2023-02-04T07:17:47;9.40;;;6.07;;
6463;SDS011;3265;42.694;23.282;2023-02-04T07:20:14;15.23;;;8.20;;
6463;SDS011;3265;42.694;23.282;2023-02-04T07:22:41;20.10;;;8.47;;
6463;SDS011;3265;42.694;23.282;2023-02-04T07:25:08;11.43;;;6.60;;
6463;SDS011;3265;42.694;23.282;2023-02-04T07:27:35;13.80;;;7.40;;
6463;SDS011;3265;42.694;23.282;2023-02-04T07:30:02;13.70;;;8.43;;
6463;SDS011;3265;42.694;23.282;2023-02-04T07:32:30;9.57;;;6.77;;
6463;SDS011;3265;42.694;23.282;2023-02-04T07:34:58;10.43;;;6.27;;
6463;SDS011;3265;42.694;23.282;2023-02-04T07:37:29;12.10;;;6.60;;
6463;SDS011;3265;42.694;23.282;2023-02-04T07:40:04;12.03;;;6.00;;
6463;SDS011;3265;42.694;23.282;2023-02-04T07:42:31;9.77;;;4.80;;
6463;SDS011;3265;42.694;23.282;2023-02-04T07:44:58;8.50;;;4.70;;
6463;SDS011;3265;42.694;23.282;2023-02-04T07:47:25;9.63;;;4.70;;
6463;SDS011;3265;42.694;23.282;2023-02-04T07:49:53;12.23;;;5.60;;
6463;SDS011;3265;42.694;23.282;2023-02-04T07:52:21;6.20;;;3.93;;
6463;SDS011;3265;42.694;23.282;2023-02-04T07:54:48;9.63;;;5.00;;
6463;SDS011;3265;42.694;23.282;2023-02-04T07:57:16;6.00;;;3.73;;
6463;SDS011;3265;42.694;23.282;2023-02-04T07:59:43;10.90;;;5.30;;
6463;SDS011;3265;42.694;23.282;2023-02-04T08:02:10;8.40;;;4.53;;
6463;SDS011;3265;42.694;23.282;2023-02-04T08:04:37;10.27;;;5.90;;
6463;SDS011;3265;42.694;23.282;2023-02-04T08:07:05;11.20;;;5.63;;
6463;SDS011;3265;42.694;23.282;2023-02-04T08:09:32;10.50;;;6.60;;
6463;SDS011;3265;42.694;23.282;2023-02-04T08:11:59;12.63;;;7.83;;
6463;SDS011;3265;42.694;23.282;2023-02-04T08:14:26;15.33;;;8.13;;
6463;SDS011;3265;42.694;23.282;2023-02-04T08:16:53;17.00;;;8.73;;
6463;SDS011;3265;42.694;23.282;2023-02-04T08:19:20;11.30;;;6.27;;
6463;SDS011;3265;42.694;23.282;2023-02-04T08:21:46;12.00;;;5.83;;
6463;SDS011;3265;42.694;23.282;2023-02-04T08:24:15;8.23;;;4.97;;
6463;SDS011;3265;42.694;23.282;2023-02-04T08:26:43;9.47;;;5.40;;
6463;SDS011;3265;42.694;23.282;2023-02-04T08:29:10;9.57;;;5.13;;
6463;SDS011;3265;42.694;23.282;2023-02-04T08:31:37;9.33;;;4.40;;
6463;SDS011;3265;42.694;23.282;2023-02-04T08:34:04;15.80;;;7.80;;
6463;SDS011;3265;42.694;23.282;2023-02-04T08:36:31;17.37;;;9.20;;
6463;SDS011;3265;42.694;23.282;2023-02-04T08:38:58;15.77;;;8.10;;
6463;SDS011;3265;42.694;23.282;2023-02-04T08:41:26;7.97;;;4.93;;
6463;SDS011;3265;42.694;23.282;2023-02-04T08:43:53;5.20;;;3.70;;
6463;SDS011;3265;42.694;23.282;2023-02-04T08:46:20;7.17;;;4.83;;
6463;SDS011;3265;42.694;23.282;2023-02-04T08:48:47;7.20;;;4.83;;
6463;SDS011;3265;42.694;23.282;2023-02-04T08:51:14;11.00;;;6.47;;
6463;SDS011;3265;42.694;23.282;2023-02-04T08:53:41;8.00;;;5.27;;
6463;SDS011;3265;42.694;23.282;2023-02-04T08:56:08;8.13;;;5.13;;
6463;SDS011;3265;42.694;23.282;2023-02-04T08:58:41;13.83;;;7.60;;
6463;SDS011;3265;42.694;23.282;2023-02-04T09:01:08;10.60;;;6.07;;
6463;SDS011;3265;42.694;23.282;2023-02-04T09:03:35;17.73;;;7.23;;
6463;SDS011;3265;42.694;23.282;2023-02-04T09:06:02;14.73;;;7.10;;
6463;SDS011;3265;42.694;23.282;2023-02-04T09:08:29;10.83;;;6.70;;
6463;SDS011;3265;42.694;23.282;2023-02-04T09:10:56;18.10;;;9.10;;
6463;SDS011;3265;42.694;23.282;2023-02-04T09:13:23;15.00;;;8.23;;
6463;SDS011;3265;42.694;23.282;2023-02-04T09:15:51;9.40;;;6.20;;
6463;SDS011;3265;42.694;23.282;2023-02-04T09:18:18;13.83;;;8.10;;
6463;SDS011;3265;42.694;23.282;2023-02-04T09:20:46;13.57;;;6.53;;
6463;SDS011;3265;42.694;23.282;2023-02-04T09:23:13;19.70;;;10.40;;
6463;SDS011;3265;42.694;23.282;2023-02-04T09:25:41;19.80;;;9.23;;
6463;SDS011;3265;42.694;23.282;2023-02-04T09:28:09;9.30;;;5.20;;
6463;SDS011;3265;42.694;23.282;2023-02-04T09:30:37;12.77;;;6.33;;
6463;SDS011;3265;42.694;23.282;2023-02-04T09:33:06;8.67;;;4.50;;
6463;SDS011;3265;42.694;23.282;2023-02-04T09:35:33;11.50;;;6.40;;
6463;SDS011;3265;42.694;23.282;2023-02-04T09:38:00;13.27;;;7.73;;
6463;SDS011;3265;42.694;23.282;2023-02-04T09:40:27;11.73;;;6.30;;
6463;SDS011;3265;42.694;23.282;2023-02-04T09:42:56;6.33;;;4.03;;
6463;SDS011;3265;42.694;23.282;2023-02-04T09:45:24;13.33;;;7.43;;
6463;SDS011;3265;42.694;23.282;2023-02-04T09:47:53;14.07;;;7.70;;
6463;SDS011;3265;42.694;23.282;2023-02-04T09:50:23;7.47;;;5.27;;
6463;SDS011;3265;42.694;23.282;2023-02-04T09:52:53;14.97;;;6.70;;
6463;SDS011;3265;42.694;23.282;2023-02-04T09:55:24;14.67;;;7.87;;
6463;SDS011;3265;42.694;23.282;2023-02-04T09:57:54;18.03;;;9.27;;
6463;SDS011;3265;42.694;23.282;2023-02-04T10:00:22;17.03;;;9.20;;
6463;SDS011;3265;42.694;23.282;2023-02-04T10:03:01;12.73;;;7.30;;
6463;SDS011;3265;42.694;23.282;2023-02-04T10:05:31;13.07;;;8.07;;
6463;SDS011;3265;42.694;23.282;2023-02-04T10:08:01;14.10;;;7.33;;
6463;SDS011;3265;42.694;23.282;2023-02-04T10:10:30;12.53;;;7.87;;
6463;SDS011;3265;42.694;23.282;2023-02-04T10:12:57;13.17;;;8.20;;
6463;SDS011;3265;42.694;23.282;2023-02-04T10:15:27;19.83;;;11.00;;
6463;SDS011;3265;42.694;23.282;2023-02-04T10:17:57;17.63;;;8.53;;
6463;SDS011;3265;42.694;23.282;2023-02-04T10:20:26;17.17;;;9.03;;
6463;SDS011;3265;42.694;23.282;2023-02-04T10:22:55;18.90;;;10.07;;
6463;SDS011;3265;42.694;23.282;2023-02-04T10:25:22;12.17;;;6.83;;
6463;SDS011;3265;42.694;23.282;2023-02-04T10:27:51;12.50;;;7.60;;
6463;SDS011;3265;42.694;23.282;2023-02-04T10:30:20;12.63;;;7.10;;
6463;SDS011;3265;42.694;23.282;2023-02-04T10:32:48;8.87;;;5.50;;
6463;SDS011;3265;42.694;23.282;2023-02-04T10:35:16;11.87;;;6.47;;
6463;SDS011;3265;42.694;23.282;2023-02-04T10:37:45;7.70;;;5.03;;
6463;SDS011;3265;42.694;23.282;2023-02-04T10:40:27;9.27;;;5.37;;
6463;SDS011;3265;42.694;23.282;2023-02-04T10:42:56;15.77;;;8.30;;
6463;SDS011;3265;42.694;23.282;2023-02-04T10:45:23;17.30;;;8.90;;
6463;SDS011;3265;42.694;23.282;2023-02-04T10:47:52;11.83;;;6.70;;
6463;SDS011;3265;42.694;23.282;2023-02-04T10:50:21;13.73;;;8.20;;
6463;SDS011;3265;42.694;23.282;2023-02-04T10:52:50;17.60;;;10.57;;
6463;SDS011;3265;42.694;23.282;2023-02-04T10:55:20;15.13;;;8.00;;
6463;SDS011;3265;42.694;23.282;2023-02-04T10:57:50;12.13;;;6.90;;
6463;SDS011;3265;42.694;23.282;2023-02-04T11:00:18;12.63;;;6.77;;
6463;SDS011;3265;42.694;23.282;2023-02-04T11:02:52;12.10;;;8.00;;
6463;SDS011;3265;42.694;23.282;2023-02-04T11:05:24;13.80;;;8.70;;
6463;SDS011;3265;42.694;23.282;2023-02-04T11:07:55;8.97;;;5.50;;
6463;SDS011;3265;42.694;23.282;2023-02-04T11:10:23;12.17;;;7.10;;
6463;SDS011;3265;42.694;23.282;2023-02-04T11:13:02;16.23;;;8.67;;
6463;SDS011;3265;42.694;23.282;2023-02-04T11:15:38;16.57;;;8.77;;
6463;SDS011;3265;42.694;23.282;2023-02-04T11:18:09;13.40;;;7.97;;
6463;SDS011;3265;42.694;23.282;2023-02-04T11:20:37;15.13;;;8.17;;
6463;SDS011;3265;42.694;23.282;2023-02-04T11:23:15;12.93;;;6.93;;
6463;SDS011;3265;42.694;23.282;2023-02-04T11:29:08;8.57;;;5.47;;
6463;SDS011;3265;42.694;23.282;2023-02-04T11:31:58;15.07;;;7.40;;
6463;SDS011;3265;42.694;23.282;2023-02-04T11:34:30;14.30;;;7.93;;
6463;SDS011;3265;42.694;23.282;2023-02-04T11:40:11;15.67;;;8.23;;
6463;SDS011;3265;42.694;23.282;2023-02-04T11:42:46;14.90;;;7.10;;
6463;SDS011;3265;42.694;23.282;2023-02-04T11:45:15;5.70;;;4.03;;
6463;SDS011;3265;42.694;23.282;2023-02-04T11:47:46;6.63;;;4.33;;
6463;SDS011;3265;42.694;23.282;2023-02-04T11:50:15;9.13;;;5.93;;
6463;SDS011;3265;42.694;23.282;2023-02-04T11:52:46;11.43;;;6.80;;
6463;SDS011;3265;42.694;23.282;2023-02-04T11:55:12;15.20;;;6.97;;
6463;SDS011;3265;42.694;23.282;2023-02-04T11:57:40;16.03;;;8.17;;
6463;SDS011;3265;42.694;23.282;2023-02-04T12:00:11;11.47;;;6.37;;
6463;SDS011;3265;42.694;23.282;2023-02-04T12:02:43;12.07;;;7.03;;
6463;SDS011;3265;42.694;23.282;2023-02-04T12:05:12;11.90;;;7.63;;
6463;SDS011;3265;42.694;23.282;2023-02-04T12:07:40;7.93;;;5.17;;
6463;SDS011;3265;42.694;23.282;2023-02-04T12:10:11;12.67;;;6.10;;
6463;SDS011;3265;42.694;23.282;2023-02-04T12:12:41;12.23;;;7.07;;
6463;SDS011;3265;42.694;23.282;2023-02-04T12:15:14;10.70;;;5.87;;
6463;SDS011;3265;42.694;23.282;2023-02-04T12:17:44;15.60;;;8.77;;
6463;SDS011;3265;42.694;23.282;2023-02-04T12:20:12;11.43;;;5.10;;
6463;SDS011;3265;42.694;23.282;2023-02-04T12:22:39;8.93;;;5.20;;
6463;SDS011;3265;42.694;23.282;2023-02-04T12:25:06;16.33;;;8.40;;
6463;SDS011;3265;42.694;23.282;2023-02-04T12:27:33;14.80;;;8.37;;
6463;SDS011;3265;42.694;23.282;2023-02-04T12:30:00;12.33;;;5.77;;
6463;SDS011;3265;42.694;23.282;2023-02-04T12:32:27;14.53;;;7.50;;
6463;SDS011;3265;42.694;23.282;2023-02-04T12:34:55;16.03;;;8.63;;
6463;SDS011;3265;42.694;23.282;2023-02-04T12:37:22;16.37;;;7.33;;
6463;SDS011;3265;42.694;23.282;2023-02-04T12:39:49;22.30;;;10.33;;
6463;SDS011;3265;42.694;23.282;2023-02-04T12:42:15;18.37;;;10.13;;
6463;SDS011;3265;42.694;23.282;2023-02-04T12:44:44;23.73;;;10.30;;
6463;SDS011;3265;42.694;23.282;2023-02-04T12:47:14;17.43;;;7.60;;
6463;SDS011;3265;42.694;23.282;2023-02-04T12:49:40;13.57;;;7.27;;
6463;SDS011;3265;42.694;23.282;2023-02-04T12:52:09;17.10;;;8.77;;
6463;SDS011;3265;42.694;23.282;2023-02-04T12:54:35;12.10;;;5.50;;
6463;SDS011;3265;42.694;23.282;2023-02-04T12:57:02;21.70;;;8.30;;
6463;SDS011;3265;42.694;23.282;2023-02-04T12:59:32;14.63;;;7.77;;
6463;SDS011;3265;42.694;23.282;2023-02-04T13:01:59;13.10;;;6.40;;
6463;SDS011;3265;42.694;23.282;2023-02-04T13:04:26;12.60;;;7.27;;
6463;SDS011;3265;42.694;23.282;2023-02-04T13:06:52;9.63;;;6.17;;
6463;SDS011;3265;42.694;23.282;2023-02-04T13:09:20;12.53;;;6.80;;
6463;SDS011;3265;42.694;23.282;2023-02-04T13:11:58;11.63;;;6.10;;
6463;SDS011;3265;42.694;23.282;2023-02-04T13:14:24;12.07;;;4.80;;
6463;SDS011;3265;42.694;23.282;2023-02-04T13:16:58;4.37;;;2.80;;
6463;SDS011;3265;42.694;23.282;2023-02-04T13:19:25;6.37;;;4.00;;
6463;SDS011;3265;42.694;23.282;2023-02-04T13:21:51;3.20;;;2.47;;
6463;SDS011;3265;42.694;23.282;2023-02-04T13:24:18;5.63;;;3.50;;
6463;SDS011;3265;42.694;23.282;2023-02-04T13:26:46;4.17;;;2.83;;
6463;SDS011;3265;42.694;23.282;2023-02-04T13:29:13;7.40;;;3.93;;
6463;SDS011;3265;42.694;23.282;2023-02-04T13:31:41;7.60;;;3.47;;
6463;SDS011;3265;42.694;23.282;2023-02-04T13:34:07;8.40;;;4.50;;
6463;SDS011;3265;42.694;23.282;2023-02-04T13:36:34;8.33;;;4.63;;
6463;SDS011;3265;42.694;23.282;2023-02-04T13:39:01;4.30;;;2.93;;
6463;SDS011;3265;42.694;23.282;2023-02-04T13:41:28;7.33;;;4.03;;
6463;SDS011;3265;42.694;23.282;2023-02-04T13:43:56;7.00;;;3.73;;
6463;SDS011;3265;42.694;23.282;2023-02-04T13:46:23;5.43;;;3.40;;
6463;SDS011;3265;42.694;23.282;2023-02-04T13:48:50;4.87;;;2.87;;
6463;SDS011;3265;42.694;23.282;2023-02-04T13:51:17;8.13;;;4.57;;
6463;SDS011;3265;42.694;23.282;2023-02-04T13:53:44;5.30;;;3.83;;
6463;SDS011;3265;42.694;23.282;2023-02-04T13:56:11;6.03;;;4.00;;
6463;SDS011;3265;42.694;23.282;2023-02-04T13:58:38;6.13;;;3.80;;
6463;SDS011;3265;42.694;23.282;2023-02-04T14:01:09;8.00;;;4.77;;
6463;SDS011;3265;42.694;23.282;2023-02-04T14:03:41;7.07;;;3.73;;
6463;SDS011;3265;42.694;23.282;2023-02-04T14:06:51;12.63;;;6.57;;
6463;SDS011;3265;42.694;23.282;2023-02-04T14:09:58;9.20;;;4.60;;
6463;SDS011;3265;42.694;23.282;2023-02-04T14:12:56;9.20;;;5.40;;
6463;SDS011;3265;42.694;23.282;2023-02-04T14:18:58;6.60;;;4.03;;
6463;SDS011;3265;42.694;23.282;2023-02-04T14:22:00;8.83;;;5.50;;
6463;SDS011;3265;42.694;23.282;2023-02-04T14:24:36;6.93;;;4.70;;
6463;SDS011;3265;42.694;23.282;2023-02-04T14:27:22;7.40;;;4.90;;
6463;SDS011;3265;42.694;23.282;2023-02-04T14:32:42;8.17;;;4.60;;
6463;SDS011;3265;42.694;23.282;2023-02-04T14:35:10;8.53;;;4.00;;
6463;SDS011;3265;42.694;23.282;2023-02-04T14:37:37;10.10;;;5.67;;
6463;SDS011;3265;42.694;23.282;2023-02-04T14:40:05;12.60;;;5.67;;
6463;SDS011;3265;42.694;23.282;2023-02-04T14:42:32;8.77;;;5.50;;
6463;SDS011;3265;42.694;23.282;2023-02-04T14:45:01;10.87;;;7.00;;
6463;SDS011;3265;42.694;23.282;2023-02-04T14:47:29;10.50;;;6.03;;
6463;SDS011;3265;42.694;23.282;2023-02-04T14:49:56;7.30;;;4.53;;
6463;SDS011;3265;42.694;23.282;2023-02-04T14:52:24;7.23;;;3.97;;
6463;SDS011;3265;42.694;23.282;2023-02-04T14:54:51;5.47;;;3.90;;
6463;SDS011;3265;42.694;23.282;2023-02-04T14:57:18;9.63;;;5.27;;
6463;SDS011;3265;42.694;23.282;2023-02-04T14:59:44;8.07;;;4.30;;
6463;SDS011;3265;42.694;23.282;2023-02-04T15:02:11;8.17;;;5.37;;
6463;SDS011;3265;42.694;23.282;2023-02-04T15:04:40;7.87;;;4.03;;
6463;SDS011;3265;42.694;23.282;2023-02-04T15:07:07;6.83;;;4.07;;
6463;SDS011;3265;42.694;23.282;2023-02-04T15:09:35;10.53;;;4.97;;
6463;SDS011;3265;42.694;23.282;2023-02-04T15:12:02;6.23;;;4.20;;
6463;SDS011;3265;42.694;23.282;2023-02-04T15:14:30;10.00;;;5.87;;
6463;SDS011;3265;42.694;23.282;2023-02-04T15:16:57;10.07;;;4.70;;